createdAt,value
2023-02-03T00:02:08.820Z,28.88
2023-02-03T00:07:15.829Z,28.93
2023-02-03T00:12:21.226Z,28.66
2023-02-03T00:17:26.253Z,29.03
2023-02-03T00:22:31.366Z,28.79
2023-02-03T00:27:37.200Z,28.49
2023-02-03T00:32:42.437Z,28.50
2023-02-03T00:37:56.834Z,29.39
2023-02-03T00:43:01.785Z,28.28
2023-02-03T00:48:07.569Z,28.45
2023-02-03T00:53:12.519Z,28.55
2023-02-03T00:58:17.772Z,27.77
2023-02-03T01:03:22.745Z,28.38
2023-02-03T01:08:27.691Z,28.17
2023-02-03T01:13:32.605Z,28.18
2023-02-03T01:18:37.768Z,28.46
2023-02-03T01:23:43.722Z,28.05
2023-02-03T01:29:00.579Z,28.43
2023-02-03T01:34:06.067Z,28.14
2023-02-03T01:39:12.727Z,28.24
2023-02-03T01:44:48.746Z,28.16
2023-02-03T01:50:21.545Z,27.25
2023-02-03T01:55:31.538Z,27.13
2023-02-03T02:00:37.016Z,27.54
2023-02-03T02:06:09.873Z,26.95
2023-02-03T02:11:17.920Z,26.91
2023-02-03T02:16:42.349Z,27.30
2023-02-03T02:22:20.638Z,27.15
2023-02-03T02:27:37.261Z,27.26
2023-02-03T02:32:57.609Z,27.33
2023-02-03T02:38:18.766Z,27.13
2023-02-03T02:43:36.273Z,27.02
2023-02-03T02:48:44.045Z,26.57
2023-02-03T02:53:55.060Z,27.15
2023-02-03T02:59:03.528Z,26.09
2023-02-03T03:04:12.961Z,26.64
2023-02-03T03:09:38.202Z,26.30
2023-02-03T03:14:48.144Z,26.87
2023-02-03T03:19:59.681Z,26.54
2023-02-03T03:25:13.623Z,26.30
2023-02-03T03:30:27.637Z,26.58
2023-02-03T03:35:49.971Z,26.10
2023-02-03T03:41:23.479Z,26.34
2023-02-03T03:46:34.834Z,26.34
2023-02-03T03:51:51.084Z,26.60
2023-02-03T03:56:59.968Z,25.90
2023-02-03T04:02:06.789Z,24.55
2023-02-03T04:07:13.183Z,25.63
2023-02-03T04:12:27.326Z,26.05
2023-02-03T04:17:35.376Z,25.90
2023-02-03T04:22:40.808Z,25.74
2023-02-03T04:27:47.654Z,24.92
2023-02-03T04:32:52.890Z,25.66
2023-02-03T04:37:58.415Z,25.76
2023-02-03T04:43:09.268Z,24.42
2023-02-03T04:48:14.127Z,25.60
2023-02-03T04:53:19.413Z,25.06
2023-02-03T04:58:26.396Z,25.89
2023-02-03T05:03:35.035Z,25.29
2023-02-03T05:08:40.655Z,25.80
2023-02-03T05:13:47.850Z,25.45
2023-02-03T05:18:53.337Z,25.22
2023-02-03T05:23:58.869Z,25.64
2023-02-03T05:29:09.350Z,25.15
2023-02-03T05:34:15.235Z,25.53
2023-02-03T05:39:20.759Z,25.83
2023-02-03T05:44:30.274Z,25.94
2023-02-03T05:49:35.787Z,25.75
2023-02-03T05:54:41.086Z,24.82
2023-02-03T05:59:47.516Z,24.01
2023-02-03T06:04:52.563Z,25.18
2023-02-03T06:09:57.720Z,25.56
2023-02-03T06:15:03.777Z,25.40
2023-02-03T06:20:10.688Z,25.64
2023-02-03T06:25:17.803Z,24.38
2023-02-03T06:30:25.377Z,25.45
2023-02-03T06:35:31.488Z,25.70
2023-02-03T06:40:36.765Z,25.27
2023-02-03T06:45:43.260Z,25.64
2023-02-03T06:50:48.939Z,25.41
2023-02-03T06:55:54.258Z,25.44
2023-02-03T07:01:00.533Z,25.21
2023-02-03T07:06:05.938Z,25.14
2023-02-03T07:11:11.377Z,25.69
2023-02-03T07:16:17.059Z,25.64
2023-02-03T07:21:23.665Z,25.78
2023-02-03T07:26:32.263Z,24.22
2023-02-03T07:31:41.259Z,25.63
2023-02-03T07:36:46.836Z,24.96
2023-02-03T07:41:52.094Z,24.96
2023-02-03T07:52:26.497Z,24.49
2023-02-03T07:57:32.015Z,25.31
2023-02-03T08:02:37.621Z,24.70
2023-02-03T08:07:43.579Z,25.16
2023-02-03T08:12:49.437Z,24.87
2023-02-03T08:17:54.749Z,25.22
2023-02-03T08:23:00.007Z,25.35
2023-02-03T08:28:08.250Z,25.08
2023-02-03T08:33:13.827Z,25.13
2023-02-03T08:38:19.619Z,25.03
2023-02-03T08:43:25.359Z,25.35
2023-02-03T08:48:30.740Z,25.49
2023-02-03T08:53:36.206Z,25.09
2023-02-03T08:58:42.251Z,24.94
2023-02-03T09:03:47.702Z,25.50
2023-02-03T09:08:53.101Z,25.33
2023-02-03T09:13:59.322Z,25.14
2023-02-03T09:19:04.904Z,24.84
2023-02-03T09:24:10.296Z,25.18
2023-02-03T09:29:15.822Z,24.97
2023-02-03T09:34:22.609Z,25.35
2023-02-03T09:39:28.033Z,24.82
2023-02-03T09:44:34.209Z,25.41
2023-02-03T09:49:59.141Z,25.60
2023-02-03T09:55:12.291Z,25.12
2023-02-03T10:00:41.808Z,25.12
2023-02-03T10:06:25.241Z,25.31
2023-02-03T10:11:42.167Z,25.14
2023-02-03T10:16:59.585Z,25.37
2023-02-03T10:22:08.136Z,25.62
2023-02-03T10:27:21.100Z,25.75
2023-02-03T10:32:28.575Z,25.57
2023-02-03T10:37:42.303Z,25.64
2023-02-03T10:43:08.992Z,26.02
2023-02-03T10:48:18.228Z,25.71
2023-02-03T10:53:25.426Z,25.52
2023-02-03T10:58:34.586Z,25.69
2023-02-03T11:03:43.078Z,25.75
2023-02-03T11:08:52.019Z,25.61
2023-02-03T11:14:18.740Z,25.78
2023-02-03T11:19:25.043Z,25.70
2023-02-03T11:24:34.763Z,25.72
2023-02-03T11:29:46.782Z,25.69
2023-02-03T11:35:16.264Z,25.68
2023-02-03T11:40:32.381Z,25.85
2023-02-03T11:45:44.937Z,25.86
2023-02-03T11:51:24.824Z,25.80
2023-02-03T11:57:07.538Z,25.72
2023-02-03T12:02:35.230Z,25.83
2023-02-03T12:08:10.327Z,26.18
2023-02-03T12:13:33.614Z,26.59
2023-02-03T12:19:02.891Z,26.50
2023-02-03T12:24:18.612Z,26.84
2023-02-03T12:29:47.024Z,26.97
2023-02-03T12:35:17.709Z,26.87
2023-02-03T12:40:53.630Z,26.57
2023-02-03T12:46:02.689Z,27.11
2023-02-03T12:51:14.389Z,26.96
2023-02-03T12:56:37.864Z,27.05
2023-02-03T13:02:01.492Z,28.12
2023-02-03T13:07:21.668Z,27.68
2023-02-03T13:12:41.545Z,27.84
2023-02-03T13:17:50.767Z,27.85
2023-02-03T13:22:57.135Z,27.74
2023-02-03T13:28:26.830Z,27.97
2023-02-03T13:39:14.748Z,29.03
2023-02-03T13:44:31.323Z,27.93
2023-02-03T13:49:40.547Z,28.36
2023-02-03T13:54:47.016Z,28.49
2023-02-03T13:59:52.703Z,28.63
2023-02-03T14:05:00.859Z,28.70
2023-02-03T14:10:26.585Z,28.02
2023-02-03T14:15:35.058Z,28.32
2023-02-03T14:20:45.377Z,28.97
2023-02-03T14:25:58.012Z,28.06
2023-02-03T14:31:13.173Z,28.86
2023-02-03T14:36:39.515Z,28.09
2023-02-03T14:41:50.901Z,28.84
2023-02-03T14:46:59.526Z,28.97
2023-02-03T14:52:17.467Z,28.70
2023-02-03T14:57:42.357Z,29.23
2023-02-03T15:03:13.752Z,28.91
2023-02-03T15:08:44.834Z,29.29
2023-02-03T15:13:50.055Z,28.60
2023-02-03T15:19:08.966Z,29.00
2023-02-03T15:24:27.486Z,27.94
2023-02-03T15:29:35.271Z,28.27
2023-02-03T15:34:51.791Z,28.43
2023-02-03T15:40:13.312Z,28.15
2023-02-03T15:45:34.456Z,28.53
2023-02-03T15:51:07.569Z,28.04
2023-02-03T15:56:32.497Z,29.89
2023-02-03T16:01:37.619Z,28.57
2023-02-03T16:06:46.346Z,29.04
2023-02-03T16:11:52.474Z,29.34
2023-02-03T16:17:05.368Z,28.51
2023-02-03T16:22:31.947Z,29.65
2023-02-03T16:27:37.246Z,29.07
2023-02-03T16:33:00.644Z,29.75
2023-02-03T16:38:39.341Z,29.67
2023-02-03T16:44:02.017Z,29.16
2023-02-03T16:49:25.275Z,30.10
2023-02-03T16:54:30.473Z,30.66
2023-02-03T16:59:36.305Z,31.32
2023-02-03T17:04:41.268Z,31.07
2023-02-03T17:09:46.326Z,30.93
2023-02-03T17:14:51.326Z,31.05
2023-02-03T17:19:58.243Z,30.23
2023-02-03T17:25:03.513Z,30.18
2023-02-03T17:30:08.855Z,30.20
2023-02-03T17:35:13.944Z,29.83
2023-02-03T17:56:32.792Z,30.71
2023-02-03T18:01:37.608Z,31.83
2023-02-03T18:06:42.321Z,30.72
2023-02-03T18:11:47.627Z,31.71
2023-02-03T18:16:52.470Z,30.82
2023-02-03T18:21:57.337Z,31.40
2023-02-03T18:27:03.678Z,31.31
2023-02-03T18:32:08.456Z,31.68
2023-02-03T18:37:14.304Z,31.05
2023-02-03T18:42:19.186Z,30.14
2023-02-03T18:47:24.002Z,30.37
2023-02-03T18:52:28.917Z,31.47
2023-02-03T18:57:33.938Z,29.95
2023-02-03T19:02:38.550Z,30.85
2023-02-03T19:07:43.802Z,30.83
2023-02-03T19:12:48.463Z,30.69
2023-02-03T19:17:54.281Z,31.37
2023-02-03T19:22:58.990Z,31.98
2023-02-03T19:28:04.547Z,31.23
2023-02-03T19:33:09.289Z,30.97
2023-02-03T19:38:13.906Z,31.65
2023-02-03T19:43:20.520Z,31.38
2023-02-03T19:48:24.545Z,31.18
2023-02-03T19:53:29.433Z,31.31
2023-02-03T19:58:34.468Z,30.63
2023-02-03T20:03:38.716Z,30.41
2023-02-03T20:08:44.426Z,31.82
2023-02-03T20:13:50.488Z,31.20
2023-02-03T20:18:55.235Z,31.83
2023-02-03T20:24:00.169Z,31.25
2023-02-03T20:29:05.770Z,31.17
2023-02-03T20:34:10.872Z,31.35
2023-02-03T20:39:21.122Z,31.12
2023-02-03T20:44:25.861Z,31.30
2023-02-03T20:49:30.877Z,30.82
2023-02-03T20:54:35.717Z,31.39
2023-02-03T20:59:40.553Z,31.63
2023-02-03T21:05:01.481Z,31.94
2023-02-03T21:10:21.894Z,31.36
2023-02-03T21:15:31.495Z,31.27
2023-02-03T21:20:36.091Z,32.02
2023-02-03T21:25:41.330Z,31.06
2023-02-03T21:30:46.206Z,33.04
2023-02-03T21:35:50.880Z,31.94
2023-02-03T21:40:55.648Z,31.68
2023-02-03T21:46:00.564Z,31.89
2023-02-03T21:51:17.472Z,31.30
2023-02-03T21:56:28.425Z,31.54
2023-02-03T22:01:39.360Z,30.60
2023-02-03T22:06:55.201Z,31.33
2023-02-03T22:12:01.243Z,31.71
2023-02-03T22:17:06.090Z,31.42
2023-02-03T22:22:10.918Z,31.88
2023-02-03T22:27:15.667Z,32.43
2023-02-03T22:32:20.363Z,32.66
2023-02-03T22:37:25.209Z,32.11
2023-02-03T22:42:30.708Z,32.25
2023-02-03T22:47:35.424Z,33.07
2023-02-03T22:52:40.255Z,32.39
2023-02-03T22:57:45.048Z,32.27
2023-02-03T23:02:50.218Z,32.37
2023-02-03T23:07:55.556Z,32.85
2023-02-03T23:13:04.960Z,32.09
2023-02-03T23:18:09.756Z,32.47
2023-02-03T23:23:15.547Z,31.50
2023-02-03T23:28:20.370Z,32.15
2023-02-03T23:33:25.348Z,32.90
2023-02-03T23:38:30.166Z,32.77
2023-02-03T23:43:34.902Z,32.17
2023-02-03T23:48:40.757Z,33.97
2023-02-03T23:53:45.368Z,34.26
2023-02-03T23:58:51.168Z,33.42
